首页
METAR-TAF:

METAR-TAF

机场 :

秋田機場

秋田, 日本

纬度: 39-37N, 经度: 140-13E, 海拔: 93米

当前天气观测

该预报发布于2小时和15分钟前的12:00 UTC
风速3节,风向东转东南,在东南之间变化
温度 22°C
湿度 78%
气压 1011 hPa
能见度10公里或以上
少量云层高于4000英尺
多云层高于18000英尺

METAR: RJSK 201200Z 12003KT 080V140 9999 FEW040 BKN180 22/18 Q1011

时间: 23:15 (14:15 UTC)

预报

该预报发布于3小时和9分钟前的11:06 UTC
预报有效从20日的 12点(UTC)到 21日的 18点(UTC)
风速7节,风向东南
能见度10公里或以上
少量云层高于3000英尺

TAF: RJSK 201106Z 2012/2118 13007KT 9999 FEW030

超过4000个机场的气象观测和天气预报(METAR&TAF报告)。

可查询的气象台以黄色和红色小点在地图上表示。

将鼠标移到小点上方,可查看气象台名称。

然后点击查看天气观测和预报。

如需切换地图:点击带黑十字的绿色按钮放大地图;点击带横线的绿色按钮缩小地图;或者点击绿色箭头查看邻近地区的地图。


METAR-TAF: